createdAt,value
2023-03-16T00:01:06.027Z,99741.34
2023-03-16T00:03:33.581Z,99744.03
2023-03-16T00:06:00.089Z,99742.44
2023-03-16T00:08:26.587Z,99744.25
2023-03-16T00:10:53.320Z,99747.69
2023-03-16T00:13:22.634Z,99747.69
2023-03-16T00:15:52.051Z,99752.81
2023-03-16T00:18:18.730Z,99762.97
2023-03-16T00:20:45.321Z,99761.66
2023-03-16T00:23:11.780Z,99757.59
2023-03-16T00:25:38.267Z,99760.88
2023-03-16T00:28:04.877Z,99770.69
2023-03-16T00:30:31.397Z,99762.13
2023-03-16T00:32:57.995Z,99768.22
2023-03-16T00:35:25.140Z,99778.06
2023-03-16T00:37:51.673Z,99770.59
2023-03-16T00:40:18.240Z,99775.06
2023-03-16T00:42:44.719Z,99776.91
2023-03-16T00:45:11.308Z,99782.03
2023-03-16T00:47:37.791Z,99787.94
2023-03-16T00:50:04.733Z,99778.00
2023-03-16T00:52:31.540Z,99782.28
2023-03-16T00:54:58.903Z,99785.81
2023-03-16T00:57:26.386Z,99785.94
2023-03-16T00:59:52.967Z,99782.16
2023-03-16T01:02:20.426Z,99782.56
2023-03-16T01:04:46.895Z,99788.19
2023-03-16T01:07:14.511Z,99788.50
2023-03-16T01:09:42.540Z,99785.38
2023-03-16T01:12:15.056Z,99776.28
2023-03-16T01:14:42.205Z,99778.88
2023-03-16T01:17:09.869Z,99778.13
2023-03-16T01:19:37.658Z,99787.19
2023-03-16T01:22:06.007Z,99791.50
2023-03-16T01:24:32.657Z,99801.06
2023-03-16T01:26:59.124Z,99794.75
2023-03-16T01:29:25.602Z,99795.09
2023-03-16T01:31:52.145Z,99797.28
2023-03-16T01:34:18.977Z,99796.41
2023-03-16T01:36:48.289Z,99802.06
2023-03-16T01:39:15.767Z,99797.88
2023-03-16T01:41:43.414Z,99803.13
2023-03-16T01:44:12.369Z,99812.41
2023-03-16T01:46:38.821Z,99805.63
2023-03-16T01:49:11.268Z,99805.09
2023-03-16T01:51:55.484Z,99810.78
2023-03-16T01:54:30.099Z,99816.69
2023-03-16T01:57:06.033Z,99808.47
2023-03-16T01:59:38.623Z,99807.72
2023-03-16T02:02:06.229Z,99810.50
2023-03-16T02:04:43.978Z,99808.22
2023-03-16T02:07:12.037Z,99825.88
2023-03-16T02:09:42.583Z,99825.78
2023-03-16T02:12:10.395Z,99830.06
2023-03-16T02:14:36.839Z,99823.22
2023-03-16T02:17:03.345Z,99814.13
2023-03-16T02:19:39.629Z,99831.03
2023-03-16T02:22:08.796Z,99823.56
2023-03-16T02:24:37.053Z,99842.06
2023-03-16T02:27:08.968Z,99837.50
2023-03-16T02:29:47.291Z,99836.78
2023-03-16T02:32:15.346Z,99854.88
2023-03-16T02:34:42.506Z,99850.69
2023-03-16T02:37:10.262Z,99852.22
2023-03-16T02:39:36.746Z,99862.50
2023-03-16T02:42:04.022Z,99858.00
2023-03-16T02:44:36.965Z,99865.22
2023-03-16T02:47:09.424Z,99867.41
2023-03-16T02:49:39.790Z,99862.53
2023-03-16T02:52:07.468Z,99861.59
2023-03-16T02:54:34.091Z,99872.28
2023-03-16T02:57:00.623Z,99866.38
2023-03-16T02:59:27.091Z,99878.31
2023-03-16T03:01:53.623Z,99875.06
2023-03-16T03:04:20.346Z,99870.09
2023-03-16T03:06:46.860Z,99873.53
2023-03-16T03:09:13.334Z,99882.22
2023-03-16T03:11:40.170Z,99887.06
2023-03-16T03:14:06.631Z,99888.69
2023-03-16T03:16:33.266Z,99888.59
2023-03-16T03:18:59.854Z,99886.31
2023-03-16T03:21:26.391Z,99887.72
2023-03-16T03:23:52.961Z,99895.56
2023-03-16T03:26:19.933Z,99900.72
2023-03-16T03:28:46.702Z,99901.66
2023-03-16T03:31:22.306Z,99905.00
2023-03-16T03:33:49.127Z,99903.97
2023-03-16T03:36:16.057Z,99901.19
2023-03-16T03:38:42.553Z,99903.03
2023-03-16T03:41:09.006Z,99908.16
2023-03-16T03:43:35.514Z,99907.31
2023-03-16T03:46:03.323Z,99905.31
2023-03-16T03:48:30.021Z,99911.97
2023-03-16T03:50:56.611Z,99909.97
2023-03-16T03:53:23.086Z,99909.22
2023-03-16T03:55:49.561Z,99916.47
2023-03-16T03:58:16.245Z,99919.81
2023-03-16T04:00:42.947Z,99917.81
2023-03-16T04:03:09.505Z,99927.34
2023-03-16T04:05:36.033Z,99922.88
2023-03-16T04:08:02.519Z,99921.06
2023-03-16T04:10:30.680Z,99926.69
2023-03-16T04:12:58.451Z,99922.38
2023-03-16T04:15:26.064Z,99921.91
2023-03-16T04:17:52.764Z,99925.72
2023-03-16T04:20:19.583Z,99925.81
2023-03-16T04:22:47.299Z,99935.47
2023-03-16T04:25:15.573Z,99923.16
2023-03-16T04:27:42.640Z,99933.75
2023-03-16T04:30:14.134Z,99932.78
2023-03-16T04:32:41.422Z,99939.56
2023-03-16T04:35:08.788Z,99952.56
2023-03-16T04:37:35.379Z,99947.69
2023-03-16T04:40:02.051Z,99941.56
2023-03-16T04:42:28.503Z,99946.53
2023-03-16T04:44:55.005Z,99940.44
2023-03-16T04:47:21.465Z,99942.16
2023-03-16T04:49:47.894Z,99952.84
2023-03-16T04:52:14.387Z,99954.53
2023-03-16T04:54:40.812Z,99953.97
2023-03-16T04:57:07.295Z,99952.94
2023-03-16T04:59:33.759Z,99960.66
2023-03-16T05:02:00.288Z,99960.19
2023-03-16T05:04:26.716Z,99964.50
2023-03-16T05:06:53.258Z,99963.72
2023-03-16T05:09:19.713Z,99967.91
2023-03-16T05:11:46.313Z,99959.88
2023-03-16T05:14:12.780Z,99963.22
2023-03-16T05:16:39.253Z,99969.16
2023-03-16T05:19:05.691Z,99976.88
2023-03-16T05:21:32.256Z,99976.13
2023-03-16T05:23:58.734Z,99982.41
2023-03-16T05:26:25.368Z,99992.09
2023-03-16T05:28:52.155Z,99985.78
2023-03-16T05:31:19.249Z,99983.88
2023-03-16T05:33:45.836Z,99989.31
2023-03-16T05:36:12.383Z,99985.47
2023-03-16T05:38:38.884Z,99994.25
2023-03-16T05:41:06.123Z,99996.38
2023-03-16T05:43:32.764Z,99997.81
2023-03-16T05:45:59.215Z,99997.91
2023-03-16T05:48:25.684Z,100005.81
2023-03-16T05:50:52.555Z,99996.00
2023-03-16T05:53:19.265Z,99992.16
2023-03-16T05:55:45.773Z,99990.66
2023-03-16T05:58:12.269Z,99994.06
2023-03-16T06:00:38.698Z,99986.81
2023-03-16T06:03:05.455Z,99989.50
2023-03-16T06:05:32.026Z,99994.16
2023-03-16T06:07:58.485Z,100003.94
2023-03-16T06:10:24.931Z,100000.28
2023-03-16T06:12:51.762Z,100001.25
2023-03-16T06:15:18.495Z,100005.25
2023-03-16T06:17:45.031Z,100017.56
2023-03-16T06:20:13.184Z,100030.06
2023-03-16T06:22:41.753Z,100027.31
2023-03-16T06:25:10.127Z,100032.56
2023-03-16T06:27:37.015Z,100038.47
2023-03-16T06:30:04.660Z,100045.25
2023-03-16T06:32:31.060Z,100046.03
2023-03-16T06:34:57.527Z,100046.03
2023-03-16T06:37:23.950Z,100058.34
2023-03-16T06:39:50.419Z,100055.56
2023-03-16T06:42:16.938Z,100068.47
2023-03-16T06:44:43.370Z,100069.31
2023-03-16T06:47:09.855Z,100073.25
2023-03-16T06:49:36.338Z,100067.50
2023-03-16T06:52:03.026Z,100076.31
2023-03-16T06:54:29.747Z,100088.63
2023-03-16T06:56:56.224Z,100084.34
2023-03-16T06:59:22.697Z,100086.03
2023-03-16T07:01:49.173Z,100096.75
2023-03-16T07:04:16.274Z,100091.28
2023-03-16T07:06:42.854Z,100098.19
2023-03-16T07:09:09.408Z,100090.94
2023-03-16T07:11:36.056Z,100103.25
2023-03-16T07:14:03.070Z,100106.69
2023-03-16T07:16:29.788Z,100101.53
2023-03-16T07:18:56.436Z,100105.81
2023-03-16T07:21:22.880Z,100101.03
2023-03-16T07:23:50.118Z,100108.31
2023-03-16T07:26:16.581Z,100109.75
2023-03-16T07:28:43.090Z,100116.53
2023-03-16T07:31:09.541Z,100110.22
2023-03-16T07:33:36.658Z,100120.53
2023-03-16T07:36:03.396Z,100122.34
2023-03-16T07:38:30.784Z,100106.75
2023-03-16T07:40:57.255Z,100118.41
2023-03-16T07:43:23.820Z,100107.81
2023-03-16T07:45:51.324Z,100120.72
2023-03-16T07:48:18.501Z,100126.34
2023-03-16T07:50:47.054Z,100123.16
2023-03-16T07:53:13.871Z,100130.59
2023-03-16T07:55:40.397Z,100136.44
2023-03-16T07:58:06.877Z,100134.78
2023-03-16T08:00:34.302Z,100130.69
2023-03-16T08:03:00.813Z,100136.41
2023-03-16T08:05:27.969Z,100133.34
2023-03-16T08:07:55.515Z,100126.44
2023-03-16T08:10:22.199Z,100123.25
2023-03-16T08:12:48.890Z,100131.84
2023-03-16T08:15:15.384Z,100137.00
2023-03-16T08:17:41.896Z,100146.13
2023-03-16T08:20:10.847Z,100154.28
2023-03-16T08:22:37.525Z,100155.25
2023-03-16T08:25:05.601Z,100152.75
2023-03-16T08:27:32.578Z,100147.09
2023-03-16T08:29:59.145Z,100157.63
2023-03-16T08:32:25.768Z,100152.91
2023-03-16T08:34:52.232Z,100163.31
2023-03-16T08:37:18.661Z,100157.44
2023-03-16T08:39:45.123Z,100155.09
2023-03-16T08:42:11.703Z,100157.03
2023-03-16T08:44:38.132Z,100145.66
2023-03-16T08:47:04.824Z,100152.31
2023-03-16T08:49:31.278Z,100144.28
2023-03-16T08:51:57.752Z,100151.34
2023-03-16T08:54:24.270Z,100147.06
2023-03-16T08:56:50.742Z,100149.19
2023-03-16T08:59:29.085Z,100156.31
2023-03-16T09:01:56.331Z,100145.47
2023-03-16T09:04:22.974Z,100151.16
2023-03-16T09:06:59.023Z,100159.00
2023-03-16T09:09:34.742Z,100145.03
2023-03-16T09:12:02.345Z,100152.53
2023-03-16T09:14:28.722Z,100163.91
2023-03-16T09:16:55.227Z,100160.06
2023-03-16T09:19:21.681Z,100152.44
2023-03-16T09:21:48.285Z,100167.25
2023-03-16T09:24:14.747Z,100168.13
2023-03-16T09:26:41.282Z,100172.41
2023-03-16T09:29:07.788Z,100181.97
2023-03-16T09:31:34.373Z,100172.63
2023-03-16T09:34:00.813Z,100186.25
2023-03-16T09:36:27.263Z,100183.34
2023-03-16T09:38:53.817Z,100187.00
2023-03-16T09:41:48.086Z,100190.78
2023-03-16T09:44:36.014Z,100201.31
2023-03-16T09:47:04.754Z,100198.28
2023-03-16T09:49:37.399Z,100209.03
2023-03-16T09:52:22.037Z,100212.06
2023-03-16T09:55:00.475Z,100214.41
2023-03-16T09:57:30.713Z,100220.19
2023-03-16T10:00:08.000Z,100226.44
2023-03-16T10:02:58.845Z,100227.91
2023-03-16T10:05:27.267Z,100237.59
2023-03-16T10:07:53.696Z,100232.44
2023-03-16T10:10:31.608Z,100226.31
2023-03-16T10:13:00.623Z,100237.38
2023-03-16T10:15:30.922Z,100237.38
2023-03-16T10:18:06.739Z,100239.63
2023-03-16T10:20:34.804Z,100244.13
2023-03-16T10:23:13.781Z,100239.63
2023-03-16T10:25:48.854Z,100242.63
2023-03-16T10:28:20.685Z,100248.34
2023-03-16T10:30:49.295Z,100249.72
2023-03-16T10:33:27.730Z,100250.47
2023-03-16T10:36:04.137Z,100251.47
2023-03-16T10:38:39.893Z,100249.31
2023-03-16T10:41:20.737Z,100252.41
2023-03-16T10:43:56.575Z,100245.88
2023-03-16T10:46:25.542Z,100251.78
2023-03-16T10:49:00.455Z,100254.16
2023-03-16T10:51:33.587Z,100248.38
2023-03-16T10:54:17.300Z,100249.66
2023-03-16T10:56:43.841Z,100250.81
2023-03-16T10:59:15.188Z,100257.47
2023-03-16T11:01:45.601Z,100255.00
2023-03-16T11:04:14.800Z,100263.28
2023-03-16T11:06:49.070Z,100254.56
2023-03-16T11:09:22.593Z,100259.63
2023-03-16T11:11:49.952Z,100269.00
2023-03-16T11:14:21.037Z,100258.47
2023-03-16T11:17:12.617Z,100263.63
2023-03-16T11:19:50.659Z,100261.16
2023-03-16T11:22:20.224Z,100259.56
2023-03-16T11:24:55.250Z,100265.75
2023-03-16T11:27:38.923Z,100263.63
2023-03-16T11:30:33.884Z,100259.84
2023-03-16T11:33:00.635Z,100270.16
2023-03-16T11:35:52.716Z,100270.16
2023-03-16T11:38:41.030Z,100259.63
2023-03-16T11:41:18.560Z,100268.56
2023-03-16T11:43:55.242Z,100262.31
2023-03-16T11:46:33.534Z,100263.72
2023-03-16T11:49:37.443Z,100272.94
2023-03-16T11:52:34.032Z,100264.66
2023-03-16T11:55:18.735Z,100262.31
2023-03-16T11:57:50.032Z,100272.19
2023-03-16T12:00:30.213Z,100272.44
2023-03-16T12:03:15.306Z,100270.28
2023-03-16T12:05:41.761Z,100278.03
2023-03-16T12:08:48.708Z,100273.06
2023-03-16T12:11:23.168Z,100273.59
2023-03-16T12:13:49.572Z,100269.09
2023-03-16T12:16:23.416Z,100267.81
2023-03-16T12:18:58.626Z,100271.88
2023-03-16T12:21:36.835Z,100278.34
2023-03-16T12:24:05.712Z,100273.59
2023-03-16T12:26:37.477Z,100277.03
2023-03-16T12:29:18.408Z,100282.53
2023-03-16T12:31:57.863Z,100277.38
2023-03-16T12:34:27.090Z,100278.78
2023-03-16T12:37:24.596Z,100282.22
2023-03-16T12:39:50.973Z,100276.19
2023-03-16T12:43:02.074Z,100279.53
2023-03-16T12:45:31.724Z,100284.69
2023-03-16T12:48:12.193Z,100286.63
2023-03-16T12:50:50.325Z,100296.91
2023-03-16T12:53:38.194Z,100287.59
2023-03-16T12:56:08.837Z,100289.28
2023-03-16T12:58:36.567Z,100308.09
2023-03-16T13:01:09.975Z,100291.47
2023-03-16T13:03:36.982Z,100298.00
2023-03-16T13:06:03.891Z,100298.66
2023-03-16T13:08:42.367Z,100306.50
2023-03-16T13:11:11.638Z,100308.66
2023-03-16T13:13:59.754Z,100310.25
2023-03-16T13:16:37.209Z,100323.16
2023-03-16T13:19:26.790Z,100325.63
2023-03-16T13:22:05.730Z,100342.38
2023-03-16T13:24:38.348Z,100324.72
2023-03-16T13:27:15.583Z,100332.78
2023-03-16T13:29:53.385Z,100314.31
2023-03-16T13:32:21.578Z,100325.88
2023-03-16T13:34:51.048Z,100322.81
2023-03-16T13:37:20.423Z,100338.72
2023-03-16T13:39:53.109Z,100328.72
2023-03-16T13:42:21.360Z,100324.97
2023-03-16T13:44:47.889Z,100334.09
2023-03-16T13:47:20.156Z,100318.19
2023-03-16T13:49:51.083Z,100331.09
2023-03-16T13:52:26.721Z,100341.94
2023-03-16T13:54:54.415Z,100332.34
2023-03-16T13:57:24.327Z,100341.38
2023-03-16T13:59:51.300Z,100342.31
2023-03-16T14:02:20.204Z,100328.34
2023-03-16T14:04:46.846Z,100348.56
2023-03-16T14:07:16.592Z,100335.69
2023-03-16T14:09:43.446Z,100342.44
2023-03-16T14:12:20.203Z,100345.91
2023-03-16T14:14:49.952Z,100339.25
2023-03-16T14:17:19.500Z,100347.63
2023-03-16T14:19:57.085Z,100330.00
2023-03-16T14:22:29.237Z,100342.81
2023-03-16T14:24:59.135Z,100353.00
2023-03-16T14:27:25.611Z,100343.97
2023-03-16T14:30:19.640Z,100356.97
2023-03-16T14:32:58.678Z,100351.81
2023-03-16T14:35:39.207Z,100355.94
2023-03-16T14:38:29.671Z,100357.09
2023-03-16T14:41:02.996Z,100361.41
2023-03-16T14:43:34.968Z,100358.06
2023-03-16T14:46:04.403Z,100363.00
2023-03-16T14:48:31.598Z,100372.53
2023-03-16T14:51:00.714Z,100374.34
2023-03-16T14:53:28.067Z,100370.16
2023-03-16T14:55:58.743Z,100375.72
2023-03-16T14:58:25.750Z,100367.34
2023-03-16T15:00:54.793Z,100377.41
2023-03-16T15:03:30.143Z,100379.13
2023-03-16T15:05:56.794Z,100374.41
2023-03-16T15:08:29.974Z,100379.78
2023-03-16T15:10:59.130Z,100376.31
2023-03-16T15:13:25.575Z,100385.47
2023-03-16T15:15:52.029Z,100382.88
2023-03-16T15:18:18.514Z,100388.03
2023-03-16T15:20:45.407Z,100394.78
2023-03-16T15:23:17.033Z,100389.50
2023-03-16T15:25:44.854Z,100395.84
2023-03-16T15:28:13.739Z,100399.56
2023-03-16T15:30:40.210Z,100394.97
2023-03-16T15:33:06.741Z,100394.31
2023-03-16T15:35:33.215Z,100410.22
2023-03-16T15:38:02.231Z,100400.56
2023-03-16T15:40:29.980Z,100409.28
2023-03-16T15:42:56.708Z,100405.72
2023-03-16T15:45:23.862Z,100409.44
2023-03-16T15:47:52.933Z,100416.00
2023-03-16T15:50:21.863Z,100427.28
2023-03-16T15:52:55.232Z,100430.75
2023-03-16T15:55:33.215Z,100434.38
2023-03-16T15:58:01.221Z,100430.44
2023-03-16T16:00:31.465Z,100435.81
2023-03-16T16:02:58.920Z,100431.53
2023-03-16T16:05:26.210Z,100429.78
2023-03-16T16:07:53.472Z,100438.25
2023-03-16T16:10:20.002Z,100433.19
2023-03-16T16:12:49.000Z,100443.72
2023-03-16T16:15:25.193Z,100441.03
2023-03-16T16:18:18.611Z,100437.78
2023-03-16T16:20:40.180Z,100447.84
2023-03-16T16:23:06.704Z,100463.94
2023-03-16T16:25:38.449Z,100462.13
2023-03-16T16:28:14.987Z,100464.91
2023-03-16T16:30:41.473Z,100454.56
2023-03-16T16:33:28.327Z,100465.19
2023-03-16T16:35:57.518Z,100469.59
2023-03-16T16:38:24.799Z,100471.59
2023-03-16T16:40:53.282Z,100484.25
2023-03-16T16:43:38.125Z,100487.03
2023-03-16T16:46:07.556Z,100486.34
2023-03-16T16:48:37.616Z,100491.56
2023-03-16T16:51:06.391Z,100499.13
2023-03-16T16:53:33.392Z,100491.91
2023-03-16T16:56:00.054Z,100498.44
2023-03-16T16:58:26.590Z,100504.34
2023-03-16T17:00:55.593Z,100509.81
2023-03-16T17:03:25.697Z,100509.34
2023-03-16T17:05:53.567Z,100510.97
2023-03-16T17:08:20.706Z,100502.16
2023-03-16T17:10:47.837Z,100496.03
2023-03-16T17:13:30.941Z,100496.13
2023-03-16T17:15:57.508Z,100516.69
2023-03-16T17:18:24.371Z,100506.94
2023-03-16T17:20:51.094Z,100519.56
2023-03-16T17:23:34.917Z,100516.16
2023-03-16T17:26:09.992Z,100535.84
2023-03-16T17:28:44.349Z,100533.94
2023-03-16T17:31:13.183Z,100526.91
2023-03-16T17:33:39.926Z,100528.25
2023-03-16T17:36:06.701Z,100527.47
2023-03-16T17:38:33.264Z,100520.94
2023-03-16T17:41:00.243Z,100528.31
2023-03-16T17:43:29.215Z,100528.59
2023-03-16T17:45:55.763Z,100539.13
2023-03-16T17:48:23.372Z,100534.81
2023-03-16T17:50:50.246Z,100532.25
2023-03-16T17:53:18.488Z,100542.19
2023-03-16T17:55:45.771Z,100552.53
2023-03-16T17:58:23.453Z,100547.06
2023-03-16T18:00:50.211Z,100543.53
2023-03-16T18:03:17.421Z,100556.16
2023-03-16T18:05:44.981Z,100551.09
2023-03-16T18:08:37.842Z,100555.41
2023-03-16T18:11:08.035Z,100563.72
2023-03-16T18:13:39.359Z,100560.94
2023-03-16T18:16:06.906Z,100562.94
2023-03-16T18:18:37.041Z,100565.53
2023-03-16T18:21:04.405Z,100569.06
2023-03-16T18:23:33.858Z,100569.34
2023-03-16T18:26:01.201Z,100572.28
2023-03-16T18:28:27.723Z,100575.94
2023-03-16T18:30:54.941Z,100574.38
2023-03-16T18:33:23.369Z,100583.28
2023-03-16T18:35:51.719Z,100582.50
2023-03-16T18:38:26.268Z,100583.72
2023-03-16T18:40:53.044Z,100594.72
2023-03-16T18:43:19.891Z,100595.66
2023-03-16T18:45:47.277Z,100595.66
2023-03-16T18:48:27.495Z,100587.97
2023-03-16T18:50:54.540Z,100593.94
2023-03-16T18:53:21.611Z,100596.78
2023-03-16T18:55:49.819Z,100600.66
2023-03-16T18:58:19.618Z,100603.53
2023-03-16T19:00:52.344Z,100604.31
2023-03-16T19:03:25.880Z,100609.84
2023-03-16T19:05:53.933Z,100608.19
2023-03-16T19:08:21.146Z,100607.53
2023-03-16T19:11:00.812Z,100616.66
2023-03-16T19:13:27.855Z,100624.78
2023-03-16T19:16:02.766Z,100622.09
2023-03-16T19:18:29.643Z,100624.16
2023-03-16T19:20:56.815Z,100629.69
2023-03-16T19:23:30.610Z,100623.56
2023-03-16T19:25:57.252Z,100629.53
2023-03-16T19:28:35.666Z,100630.09
2023-03-16T19:31:07.134Z,100637.28
2023-03-16T19:33:33.969Z,100633.81
2023-03-16T19:36:00.470Z,100634.09
2023-03-16T19:38:27.980Z,100639.97
2023-03-16T19:40:58.284Z,100644.69
2023-03-16T19:43:27.386Z,100641.25
2023-03-16T19:45:55.351Z,100636.91
2023-03-16T19:48:32.976Z,100643.22
2023-03-16T19:51:00.515Z,100641.31
2023-03-16T19:53:27.875Z,100648.38
2023-03-16T19:56:04.488Z,100647.56
2023-03-16T19:58:36.115Z,100640.97
2023-03-16T20:01:02.786Z,100650.91
2023-03-16T20:03:32.557Z,100652.72
2023-03-16T20:05:59.075Z,100648.22
2023-03-16T20:08:29.302Z,100656.94
2023-03-16T20:11:07.574Z,100658.63
2023-03-16T20:13:37.226Z,100651.50
2023-03-16T20:16:04.040Z,100658.53
2023-03-16T20:18:30.610Z,100663.97
2023-03-16T20:20:57.389Z,100667.56
2023-03-16T20:23:27.313Z,100665.78
2023-03-16T20:25:55.804Z,100665.16
2023-03-16T20:28:32.752Z,100679.41
2023-03-16T20:30:59.969Z,100674.06
2023-03-16T20:33:27.402Z,100680.34
2023-03-16T20:35:54.716Z,100679.56
2023-03-16T20:38:22.321Z,100678.53
2023-03-16T20:40:52.492Z,100684.84
2023-03-16T20:43:22.146Z,100688.31
2023-03-16T20:45:49.048Z,100677.53
2023-03-16T20:48:16.564Z,100683.00
2023-03-16T20:50:43.481Z,100680.94
2023-03-16T20:53:09.977Z,100687.28
2023-03-16T20:55:36.689Z,100685.75
2023-03-16T20:58:03.884Z,100687.53
2023-03-16T21:00:36.471Z,100692.44
2023-03-16T21:03:20.803Z,100689.47
2023-03-16T21:05:47.811Z,100702.28
2023-03-16T21:08:15.029Z,100697.09
2023-03-16T21:10:43.113Z,100704.16
2023-03-16T21:13:28.454Z,100701.91
2023-03-16T21:15:55.523Z,100708.50
2023-03-16T21:18:22.008Z,100702.59
2023-03-16T21:20:49.785Z,100707.63
2023-03-16T21:23:19.468Z,100711.34
2023-03-16T21:26:00.374Z,100716.88
2023-03-16T21:28:29.129Z,100718.00
2023-03-16T21:30:57.753Z,100721.84
2023-03-16T21:33:39.949Z,100723.59
2023-03-16T21:36:13.571Z,100720.91
2023-03-16T21:38:40.506Z,100718.09
2023-03-16T21:41:07.026Z,100721.69
2023-03-16T21:43:33.571Z,100724.84
2023-03-16T21:46:00.287Z,100722.88
2023-03-16T21:48:53.807Z,100724.31
2023-03-16T21:51:30.157Z,100731.44
2023-03-16T21:53:56.763Z,100728.94
2023-03-16T21:56:24.763Z,100739.00
2023-03-16T21:58:52.840Z,100731.28
2023-03-16T22:01:20.786Z,100743.53
2023-03-16T22:03:51.366Z,100739.16
2023-03-16T22:06:18.063Z,100742.06
2023-03-16T22:08:44.715Z,100743.22
2023-03-16T22:11:17.048Z,100743.94
2023-03-16T22:13:43.570Z,100743.63
2023-03-16T22:16:15.627Z,100736.88
2023-03-16T22:18:43.167Z,100737.94
2023-03-16T22:21:32.140Z,100742.13
2023-03-16T22:23:59.767Z,100737.34
2023-03-16T22:26:27.321Z,100741.59
2023-03-16T22:28:55.153Z,100751.44
2023-03-16T22:31:41.975Z,100746.00
2023-03-16T22:34:14.837Z,100746.78
2023-03-16T22:36:41.366Z,100749.97
2023-03-16T22:39:11.564Z,100745.25
2023-03-16T22:41:38.135Z,100754.66
2023-03-16T22:44:04.989Z,100757.88
2023-03-16T22:46:31.465Z,100755.53
2023-03-16T22:48:58.049Z,100768.19
2023-03-16T22:51:32.056Z,100755.16
2023-03-16T22:54:01.214Z,100760.03
2023-03-16T22:56:29.905Z,100757.34
2023-03-16T22:59:00.559Z,100759.59
2023-03-16T23:01:34.161Z,100768.13
2023-03-16T23:04:01.394Z,100765.59
2023-03-16T23:06:30.404Z,100764.28
2023-03-16T23:08:56.967Z,100766.72
2023-03-16T23:11:28.515Z,100770.09
2023-03-16T23:13:55.702Z,100767.50
2023-03-16T23:16:25.069Z,100775.28
2023-03-16T23:18:52.401Z,100777.00
2023-03-16T23:21:21.774Z,100787.41
2023-03-16T23:24:02.616Z,100785.63
2023-03-16T23:26:29.939Z,100787.34
2023-03-16T23:28:56.782Z,100786.47
2023-03-16T23:31:26.089Z,100791.56
2023-03-16T23:33:52.962Z,100794.13
2023-03-16T23:36:21.777Z,100790.72
2023-03-16T23:38:49.260Z,100792.69
2023-03-16T23:41:19.626Z,100786.47
2023-03-16T23:43:47.137Z,100791.97
2023-03-16T23:46:16.575Z,100795.69
2023-03-16T23:48:44.940Z,100799.75
2023-03-16T23:51:20.743Z,100797.16
2023-03-16T23:53:47.337Z,100796.25
2023-03-16T23:56:13.912Z,100809.38
2023-03-16T23:58:40.416Z,100807.63
